Pagrindinis puslapis
METAR-TAF:

METAR-TAF

Oro uostai :

Henderson City-County Airport

Henderson, Kentukis, Jungtinės Amerikos Valstijos

platuma: 37-49N, ilguma: 087-41W, Aukštis: 117 m

Dabartinis oras

Ataskaita buvo paskelbta 1 valandą ir 10 minutes, ne 09:56 UTC
Vėjas 8 kt iš Vakarų/Pietvakarių
Temperatūra 2°C
Drėgmė 87%
Slėgis 1016 hPa
Matomumas: 16.1 km
Apsiniaukę ne aukštis 1400 ft

METAR: KEHR 250956Z AUTO 25008KT 10SM OVC014 02/00 A3000 RMK AO2 SLP160 T00170000 FZRANO

Laikas: 05:06 (11:06 UTC)


TAF: trūkstamas

Orai ataskaitas ir orų prognozės (METAR, TAF).

turimą stotys yra geltonos ir raudonos taškus žemėlapyje.

Perkelti pele per norėdami pamatyti stoties vardą.

Tada spustelėkite, norėdami matyti oro stebėjimo ir prognozės.

Norėdami pakeisti žemėlapį: spustelėkite ant žalios mygtukų su juodo kryžiaus žemyn,; žalią mygtuką su brūkšneliu, jei norite nutolinti; arba žalių rodyklių gretimoms žemėlapius.


METAR-TAF: